sensor_id;sensor_type;location;lat;lon;timestamp;P1;durP1;ratioP1;P2;durP2;ratioP2
27187;SDS011;14708;50.872;5.306;2023-04-15T00:00:40;7.88;;;4.25;;
27187;SDS011;14708;50.872;5.306;2023-04-15T00:03:06;5.72;;;4.05;;
27187;SDS011;14708;50.872;5.306;2023-04-15T00:05:32;6.90;;;4.10;;
27187;SDS011;14708;50.872;5.306;2023-04-15T00:08:00;6.10;;;4.32;;
27187;SDS011;14708;50.872;5.306;2023-04-15T00:10:26;5.95;;;3.97;;
27187;SDS011;14708;50.872;5.306;2023-04-15T00:12:52;6.90;;;4.20;;
27187;SDS011;14708;50.872;5.306;2023-04-15T00:15:18;6.95;;;4.50;;
27187;SDS011;14708;50.872;5.306;2023-04-15T00:17:44;5.55;;;4.28;;
27187;SDS011;14708;50.872;5.306;2023-04-15T00:20:10;6.10;;;3.97;;
27187;SDS011;14708;50.872;5.306;2023-04-15T00:22:36;7.07;;;4.40;;
27187;SDS011;14708;50.872;5.306;2023-04-15T00:25:02;6.35;;;4.28;;
27187;SDS011;14708;50.872;5.306;2023-04-15T00:27:28;8.18;;;4.20;;
27187;SDS011;14708;50.872;5.306;2023-04-15T00:29:54;6.43;;;4.05;;
27187;SDS011;14708;50.872;5.306;2023-04-15T00:32:20;5.35;;;3.90;;
27187;SDS011;14708;50.872;5.306;2023-04-15T00:34:46;6.22;;;4.38;;
27187;SDS011;14708;50.872;5.306;2023-04-15T00:37:11;4.60;;;3.70;;
27187;SDS011;14708;50.872;5.306;2023-04-15T00:39:37;4.95;;;3.85;;
27187;SDS011;14708;50.872;5.306;2023-04-15T00:42:03;6.90;;;4.93;;
27187;SDS011;14708;50.872;5.306;2023-04-15T00:44:29;6.43;;;3.65;;
27187;SDS011;14708;50.872;5.306;2023-04-15T00:46:56;5.10;;;3.70;;
27187;SDS011;14708;50.872;5.306;2023-04-15T00:49:22;6.63;;;3.75;;
27187;SDS011;14708;50.872;5.306;2023-04-15T00:51:48;6.43;;;3.92;;
27187;SDS011;14708;50.872;5.306;2023-04-15T00:54:14;6.45;;;4.18;;
27187;SDS011;14708;50.872;5.306;2023-04-15T00:56:40;7.28;;;4.45;;
27187;SDS011;14708;50.872;5.306;2023-04-15T00:59:06;4.75;;;3.97;;
27187;SDS011;14708;50.872;5.306;2023-04-15T01:01:36;5.20;;;3.58;;
27187;SDS011;14708;50.872;5.306;2023-04-15T01:04:02;5.60;;;3.97;;
27187;SDS011;14708;50.872;5.306;2023-04-15T01:06:31;5.38;;;4.10;;
27187;SDS011;14708;50.872;5.306;2023-04-15T01:08:58;5.75;;;3.83;;
27187;SDS011;14708;50.872;5.306;2023-04-15T01:11:24;6.05;;;3.80;;
27187;SDS011;14708;50.872;5.306;2023-04-15T01:13:50;4.70;;;3.83;;
27187;SDS011;14708;50.872;5.306;2023-04-15T01:16:17;5.13;;;3.55;;
27187;SDS011;14708;50.872;5.306;2023-04-15T01:18:43;5.40;;;3.90;;
27187;SDS011;14708;50.872;5.306;2023-04-15T01:21:10;6.20;;;4.03;;
27187;SDS011;14708;50.872;5.306;2023-04-15T01:23:36;6.45;;;4.10;;
27187;SDS011;14708;50.872;5.306;2023-04-15T01:26:03;5.07;;;3.53;;
27187;SDS011;14708;50.872;5.306;2023-04-15T01:28:30;6.03;;;4.15;;
27187;SDS011;14708;50.872;5.306;2023-04-15T01:33:32;5.50;;;3.88;;
27187;SDS011;14708;50.872;5.306;2023-04-15T01:35:58;4.72;;;3.55;;
27187;SDS011;14708;50.872;5.306;2023-04-15T01:38:25;5.43;;;3.63;;
27187;SDS011;14708;50.872;5.306;2023-04-15T01:40:51;4.32;;;3.30;;
27187;SDS011;14708;50.872;5.306;2023-04-15T01:43:16;4.68;;;3.13;;
27187;SDS011;14708;50.872;5.306;2023-04-15T01:45:43;5.68;;;3.83;;
27187;SDS011;14708;50.872;5.306;2023-04-15T01:48:08;7.30;;;3.65;;
27187;SDS011;14708;50.872;5.306;2023-04-15T01:50:34;6.07;;;3.55;;
27187;SDS011;14708;50.872;5.306;2023-04-15T01:53:02;5.60;;;3.78;;
27187;SDS011;14708;50.872;5.306;2023-04-15T01:55:28;5.78;;;3.80;;
27187;SDS011;14708;50.872;5.306;2023-04-15T01:57:54;5.05;;;3.22;;
27187;SDS011;14708;50.872;5.306;2023-04-15T02:00:20;4.95;;;3.45;;
27187;SDS011;14708;50.872;5.306;2023-04-15T02:02:47;4.70;;;3.63;;
27187;SDS011;14708;50.872;5.306;2023-04-15T02:05:12;4.68;;;3.10;;
27187;SDS011;14708;50.872;5.306;2023-04-15T02:07:38;5.40;;;3.60;;
27187;SDS011;14708;50.872;5.306;2023-04-15T02:10:04;5.68;;;3.90;;
27187;SDS011;14708;50.872;5.306;2023-04-15T02:12:30;3.92;;;3.28;;
27187;SDS011;14708;50.872;5.306;2023-04-15T02:14:55;4.65;;;3.50;;
27187;SDS011;14708;50.872;5.306;2023-04-15T02:17:21;4.13;;;3.28;;
27187;SDS011;14708;50.872;5.306;2023-04-15T02:19:47;3.55;;;3.10;;
27187;SDS011;14708;50.872;5.306;2023-04-15T02:22:13;6.53;;;3.75;;
27187;SDS011;14708;50.872;5.306;2023-04-15T02:24:42;4.93;;;3.50;;
27187;SDS011;14708;50.872;5.306;2023-04-15T02:27:09;3.90;;;3.30;;
27187;SDS011;14708;50.872;5.306;2023-04-15T02:29:38;5.13;;;3.22;;
27187;SDS011;14708;50.872;5.306;2023-04-15T02:32:03;4.70;;;3.33;;
27187;SDS011;14708;50.872;5.306;2023-04-15T02:34:29;5.30;;;3.47;;
27187;SDS011;14708;50.872;5.306;2023-04-15T02:36:57;5.28;;;3.47;;
27187;SDS011;14708;50.872;5.306;2023-04-15T02:39:22;4.85;;;3.58;;
27187;SDS011;14708;50.872;5.306;2023-04-15T02:41:49;4.53;;;3.40;;
27187;SDS011;14708;50.872;5.306;2023-04-15T02:44:17;4.32;;;3.38;;
27187;SDS011;14708;50.872;5.306;2023-04-15T02:46:44;5.00;;;3.50;;
27187;SDS011;14708;50.872;5.306;2023-04-15T02:49:16;4.57;;;3.30;;
27187;SDS011;14708;50.872;5.306;2023-04-15T02:51:42;4.63;;;3.33;;
27187;SDS011;14708;50.872;5.306;2023-04-15T02:54:11;4.57;;;3.40;;
27187;SDS011;14708;50.872;5.306;2023-04-15T02:56:37;3.50;;;3.10;;
27187;SDS011;14708;50.872;5.306;2023-04-15T02:59:02;5.50;;;3.58;;
27187;SDS011;14708;50.872;5.306;2023-04-15T03:01:28;4.15;;;3.05;;
27187;SDS011;14708;50.872;5.306;2023-04-15T03:03:54;5.53;;;3.63;;
27187;SDS011;14708;50.872;5.306;2023-04-15T03:06:20;4.32;;;2.97;;
27187;SDS011;14708;50.872;5.306;2023-04-15T03:08:45;4.70;;;3.42;;
27187;SDS011;14708;50.872;5.306;2023-04-15T03:11:11;3.60;;;3.10;;
27187;SDS011;14708;50.872;5.306;2023-04-15T03:13:38;4.00;;;3.40;;
27187;SDS011;14708;50.872;5.306;2023-04-15T03:16:05;4.13;;;3.38;;
27187;SDS011;14708;50.872;5.306;2023-04-15T03:18:31;3.63;;;3.03;;
27187;SDS011;14708;50.872;5.306;2023-04-15T03:20:57;3.80;;;2.85;;
27187;SDS011;14708;50.872;5.306;2023-04-15T03:23:22;4.45;;;2.92;;
27187;SDS011;14708;50.872;5.306;2023-04-15T03:25:49;4.90;;;3.00;;
27187;SDS011;14708;50.872;5.306;2023-04-15T03:28:15;3.63;;;2.97;;
27187;SDS011;14708;50.872;5.306;2023-04-15T03:30:40;3.83;;;3.10;;
27187;SDS011;14708;50.872;5.306;2023-04-15T03:33:06;4.10;;;3.22;;
27187;SDS011;14708;50.872;5.306;2023-04-15T03:35:32;4.28;;;3.13;;
27187;SDS011;14708;50.872;5.306;2023-04-15T03:37:58;3.47;;;2.58;;
27187;SDS011;14708;50.872;5.306;2023-04-15T03:40:24;4.72;;;3.13;;
27187;SDS011;14708;50.872;5.306;2023-04-15T03:42:50;3.90;;;3.05;;
27187;SDS011;14708;50.872;5.306;2023-04-15T03:45:15;4.70;;;3.03;;
27187;SDS011;14708;50.872;5.306;2023-04-15T03:47:41;5.68;;;3.50;;
27187;SDS011;14708;50.872;5.306;2023-04-15T03:50:07;2.97;;;2.53;;
27187;SDS011;14708;50.872;5.306;2023-04-15T03:52:33;4.32;;;3.28;;
27187;SDS011;14708;50.872;5.306;2023-04-15T03:54:58;3.53;;;2.67;;
27187;SDS011;14708;50.872;5.306;2023-04-15T03:57:24;5.40;;;3.42;;
27187;SDS011;14708;50.872;5.306;2023-04-15T03:59:50;4.80;;;2.92;;
27187;SDS011;14708;50.872;5.306;2023-04-15T04:02:16;3.88;;;3.08;;
27187;SDS011;14708;50.872;5.306;2023-04-15T04:04:41;4.07;;;3.13;;
27187;SDS011;14708;50.872;5.306;2023-04-15T04:07:07;3.53;;;2.55;;
27187;SDS011;14708;50.872;5.306;2023-04-15T04:09:38;4.53;;;3.00;;
27187;SDS011;14708;50.872;5.306;2023-04-15T04:12:05;3.35;;;2.85;;
27187;SDS011;14708;50.872;5.306;2023-04-15T04:14:31;4.15;;;2.90;;
27187;SDS011;14708;50.872;5.306;2023-04-15T04:16:56;3.80;;;2.80;;
27187;SDS011;14708;50.872;5.306;2023-04-15T04:19:22;3.60;;;2.83;;
27187;SDS011;14708;50.872;5.306;2023-04-15T04:21:48;3.05;;;2.70;;
27187;SDS011;14708;50.872;5.306;2023-04-15T04:24:13;4.65;;;3.20;;
27187;SDS011;14708;50.872;5.306;2023-04-15T04:26:39;4.18;;;3.05;;
27187;SDS011;14708;50.872;5.306;2023-04-15T04:29:05;2.88;;;2.40;;
27187;SDS011;14708;50.872;5.306;2023-04-15T04:31:31;3.45;;;2.80;;
27187;SDS011;14708;50.872;5.306;2023-04-15T04:33:56;4.53;;;2.72;;
27187;SDS011;14708;50.872;5.306;2023-04-15T04:36:22;3.55;;;2.75;;
27187;SDS011;14708;50.872;5.306;2023-04-15T04:38:48;4.18;;;3.28;;
27187;SDS011;14708;50.872;5.306;2023-04-15T04:41:13;4.65;;;2.60;;
27187;SDS011;14708;50.872;5.306;2023-04-15T04:43:39;4.75;;;3.15;;
27187;SDS011;14708;50.872;5.306;2023-04-15T04:46:05;4.18;;;3.28;;
27187;SDS011;14708;50.872;5.306;2023-04-15T04:48:30;4.45;;;2.90;;
27187;SDS011;14708;50.872;5.306;2023-04-15T04:50:56;4.00;;;2.50;;
27187;SDS011;14708;50.872;5.306;2023-04-15T04:53:22;3.63;;;2.50;;
27187;SDS011;14708;50.872;5.306;2023-04-15T04:55:47;5.57;;;2.85;;
27187;SDS011;14708;50.872;5.306;2023-04-15T04:58:13;5.38;;;2.95;;
27187;SDS011;14708;50.872;5.306;2023-04-15T05:00:39;3.63;;;2.35;;
27187;SDS011;14708;50.872;5.306;2023-04-15T05:03:06;3.17;;;2.70;;
27187;SDS011;14708;50.872;5.306;2023-04-15T05:05:31;3.00;;;2.70;;
27187;SDS011;14708;50.872;5.306;2023-04-15T05:07:58;3.38;;;2.92;;
27187;SDS011;14708;50.872;5.306;2023-04-15T05:10:23;3.20;;;2.67;;
27187;SDS011;14708;50.872;5.306;2023-04-15T05:12:49;3.33;;;2.70;;
27187;SDS011;14708;50.872;5.306;2023-04-15T05:15:15;4.47;;;3.15;;
27187;SDS011;14708;50.872;5.306;2023-04-15T05:17:41;3.50;;;2.50;;
27187;SDS011;14708;50.872;5.306;2023-04-15T05:20:10;3.95;;;2.60;;
27187;SDS011;14708;50.872;5.306;2023-04-15T05:22:36;2.90;;;2.30;;
27187;SDS011;14708;50.872;5.306;2023-04-15T05:25:02;4.43;;;2.88;;
27187;SDS011;14708;50.872;5.306;2023-04-15T05:27:27;7.07;;;2.85;;
27187;SDS011;14708;50.872;5.306;2023-04-15T05:29:53;5.82;;;2.38;;
27187;SDS011;14708;50.872;5.306;2023-04-15T05:32:20;3.40;;;2.50;;
27187;SDS011;14708;50.872;5.306;2023-04-15T05:34:46;6.75;;;2.58;;
27187;SDS011;14708;50.872;5.306;2023-04-15T05:37:11;4.88;;;2.80;;
27187;SDS011;14708;50.872;5.306;2023-04-15T05:39:37;4.70;;;2.50;;
27187;SDS011;14708;50.872;5.306;2023-04-15T05:42:03;5.47;;;2.60;;
27187;SDS011;14708;50.872;5.306;2023-04-15T05:44:29;5.25;;;2.72;;
27187;SDS011;14708;50.872;5.306;2023-04-15T05:46:55;3.33;;;2.15;;
27187;SDS011;14708;50.872;5.306;2023-04-15T05:49:22;4.07;;;2.35;;
27187;SDS011;14708;50.872;5.306;2023-04-15T05:51:48;3.58;;;2.55;;
27187;SDS011;14708;50.872;5.306;2023-04-15T05:54:14;3.45;;;2.40;;
27187;SDS011;14708;50.872;5.306;2023-04-15T05:56:40;10.68;;;3.30;;
27187;SDS011;14708;50.872;5.306;2023-04-15T05:59:05;13.25;;;3.70;;
27187;SDS011;14708;50.872;5.306;2023-04-15T06:01:32;6.70;;;3.22;;
27187;SDS011;14708;50.872;5.306;2023-04-15T06:03:58;13.98;;;3.60;;
27187;SDS011;14708;50.872;5.306;2023-04-15T06:06:24;6.65;;;2.60;;
27187;SDS011;14708;50.872;5.306;2023-04-15T06:08:51;4.32;;;2.80;;
27187;SDS011;14708;50.872;5.306;2023-04-15T06:11:19;6.60;;;2.60;;
27187;SDS011;14708;50.872;5.306;2023-04-15T06:13:46;7.65;;;2.88;;
27187;SDS011;14708;50.872;5.306;2023-04-15T06:16:11;5.28;;;2.50;;
27187;SDS011;14708;50.872;5.306;2023-04-15T06:18:38;7.45;;;2.90;;
27187;SDS011;14708;50.872;5.306;2023-04-15T06:21:04;10.20;;;3.55;;
27187;SDS011;14708;50.872;5.306;2023-04-15T06:23:30;8.20;;;2.90;;
27187;SDS011;14708;50.872;5.306;2023-04-15T06:26:00;8.20;;;2.92;;
27187;SDS011;14708;50.872;5.306;2023-04-15T06:28:26;7.20;;;2.65;;
27187;SDS011;14708;50.872;5.306;2023-04-15T06:30:52;6.18;;;3.00;;
27187;SDS011;14708;50.872;5.306;2023-04-15T06:33:18;6.57;;;2.90;;
27187;SDS011;14708;50.872;5.306;2023-04-15T06:35:44;6.28;;;3.05;;
27187;SDS011;14708;50.872;5.306;2023-04-15T06:38:09;6.47;;;3.28;;
27187;SDS011;14708;50.872;5.306;2023-04-15T06:40:35;7.20;;;3.05;;
27187;SDS011;14708;50.872;5.306;2023-04-15T06:43:01;7.28;;;3.15;;
27187;SDS011;14708;50.872;5.306;2023-04-15T06:45:28;8.32;;;3.58;;
27187;SDS011;14708;50.872;5.306;2023-04-15T06:47:55;6.72;;;3.03;;
27187;SDS011;14708;50.872;5.306;2023-04-15T06:50:22;6.93;;;2.90;;
27187;SDS011;14708;50.872;5.306;2023-04-15T06:52:48;5.72;;;2.85;;
27187;SDS011;14708;50.872;5.306;2023-04-15T06:55:13;6.13;;;2.80;;
27187;SDS011;14708;50.872;5.306;2023-04-15T06:57:39;8.73;;;3.08;;
27187;SDS011;14708;50.872;5.306;2023-04-15T07:00:05;9.30;;;3.28;;
27187;SDS011;14708;50.872;5.306;2023-04-15T07:02:35;8.32;;;2.67;;
27187;SDS011;14708;50.872;5.306;2023-04-15T07:05:00;6.25;;;3.00;;
27187;SDS011;14708;50.872;5.306;2023-04-15T07:07:26;5.57;;;3.03;;
27187;SDS011;14708;50.872;5.306;2023-04-15T07:09:52;7.85;;;3.20;;
27187;SDS011;14708;50.872;5.306;2023-04-15T07:12:18;6.35;;;2.97;;
27187;SDS011;14708;50.872;5.306;2023-04-15T07:14:44;10.88;;;3.55;;
27187;SDS011;14708;50.872;5.306;2023-04-15T07:17:10;8.48;;;3.50;;
27187;SDS011;14708;50.872;5.306;2023-04-15T07:19:37;7.22;;;2.60;;
27187;SDS011;14708;50.872;5.306;2023-04-15T07:22:02;5.75;;;2.90;;
27187;SDS011;14708;50.872;5.306;2023-04-15T07:24:28;8.50;;;3.33;;
27187;SDS011;14708;50.872;5.306;2023-04-15T07:26:55;7.75;;;2.67;;
27187;SDS011;14708;50.872;5.306;2023-04-15T07:29:22;7.97;;;3.13;;
27187;SDS011;14708;50.872;5.306;2023-04-15T07:31:48;11.38;;;3.45;;
27187;SDS011;14708;50.872;5.306;2023-04-15T07:34:13;6.28;;;2.80;;
27187;SDS011;14708;50.872;5.306;2023-04-15T07:36:40;6.32;;;2.88;;
27187;SDS011;14708;50.872;5.306;2023-04-15T07:39:06;5.63;;;2.83;;
27187;SDS011;14708;50.872;5.306;2023-04-15T07:41:32;7.22;;;3.30;;
27187;SDS011;14708;50.872;5.306;2023-04-15T07:57:27;4.85;;;2.42;;
27187;SDS011;14708;50.872;5.306;2023-04-15T07:59:52;10.00;;;3.22;;
27187;SDS011;14708;50.872;5.306;2023-04-15T08:05:14;11.23;;;3.90;;
27187;SDS011;14708;50.872;5.306;2023-04-15T08:07:41;7.30;;;2.88;;
27187;SDS011;14708;50.872;5.306;2023-04-15T08:10:06;9.25;;;3.10;;
27187;SDS011;14708;50.872;5.306;2023-04-15T08:12:36;5.85;;;2.97;;
27187;SDS011;14708;50.872;5.306;2023-04-15T08:15:02;7.40;;;3.08;;
27187;SDS011;14708;50.872;5.306;2023-04-15T08:17:32;6.47;;;2.53;;
27187;SDS011;14708;50.872;5.306;2023-04-15T08:20:03;7.22;;;3.05;;
27187;SDS011;14708;50.872;5.306;2023-04-15T08:22:29;5.93;;;3.10;;
27187;SDS011;14708;50.872;5.306;2023-04-15T08:24:55;7.07;;;2.67;;
27187;SDS011;14708;50.872;5.306;2023-04-15T08:27:21;11.18;;;3.30;;
27187;SDS011;14708;50.872;5.306;2023-04-15T08:29:47;5.45;;;2.92;;
27187;SDS011;14708;50.872;5.306;2023-04-15T08:32:13;4.32;;;2.47;;
27187;SDS011;14708;50.872;5.306;2023-04-15T08:34:38;6.32;;;2.72;;
27187;SDS011;14708;50.872;5.306;2023-04-15T08:37:04;6.47;;;3.25;;
27187;SDS011;14708;50.872;5.306;2023-04-15T08:39:30;4.65;;;2.70;;
27187;SDS011;14708;50.872;5.306;2023-04-15T08:42:00;7.43;;;2.90;;
27187;SDS011;14708;50.872;5.306;2023-04-15T08:44:33;7.60;;;3.10;;
27187;SDS011;14708;50.872;5.306;2023-04-15T08:47:01;6.47;;;2.85;;
27187;SDS011;14708;50.872;5.306;2023-04-15T08:49:27;6.85;;;2.50;;
27187;SDS011;14708;50.872;5.306;2023-04-15T08:51:53;7.32;;;2.70;;
27187;SDS011;14708;50.872;5.306;2023-04-15T08:54:20;7.20;;;2.53;;
27187;SDS011;14708;50.872;5.306;2023-04-15T08:56:46;7.55;;;2.88;;
27187;SDS011;14708;50.872;5.306;2023-04-15T08:59:13;7.15;;;2.85;;
27187;SDS011;14708;50.872;5.306;2023-04-15T09:01:40;5.45;;;2.78;;
27187;SDS011;14708;50.872;5.306;2023-04-15T09:04:09;7.25;;;2.90;;
27187;SDS011;14708;50.872;5.306;2023-04-15T09:06:36;7.13;;;2.78;;
27187;SDS011;14708;50.872;5.306;2023-04-15T09:09:04;4.75;;;2.85;;
27187;SDS011;14708;50.872;5.306;2023-04-15T09:11:30;5.82;;;2.45;;
27187;SDS011;14708;50.872;5.306;2023-04-15T09:13:55;5.82;;;2.70;;
27187;SDS011;14708;50.872;5.306;2023-04-15T09:16:21;5.68;;;2.90;;
27187;SDS011;14708;50.872;5.306;2023-04-15T09:18:47;8.32;;;3.17;;
27187;SDS011;14708;50.872;5.306;2023-04-15T09:21:14;7.60;;;2.90;;
27187;SDS011;14708;50.872;5.306;2023-04-15T09:23:52;7.47;;;2.97;;
27187;SDS011;14708;50.872;5.306;2023-04-15T09:26:29;6.57;;;3.00;;
27187;SDS011;14708;50.872;5.306;2023-04-15T09:29:09;16.20;;;3.63;;
27187;SDS011;14708;50.872;5.306;2023-04-15T09:31:38;62.28;;;18.45;;
27187;SDS011;14708;50.872;5.306;2023-04-15T09:34:05;43.92;;;12.18;;
27187;SDS011;14708;50.872;5.306;2023-04-15T09:42:33;36.03;;;10.68;;
27187;SDS011;14708;50.872;5.306;2023-04-15T09:45:11;59.13;;;16.55;;
27187;SDS011;14708;50.872;5.306;2023-04-15T09:47:37;51.20;;;15.65;;
27187;SDS011;14708;50.872;5.306;2023-04-15T09:50:03;52.03;;;14.85;;
27187;SDS011;14708;50.872;5.306;2023-04-15T09:52:29;55.58;;;16.17;;
27187;SDS011;14708;50.872;5.306;2023-04-15T09:54:56;56.78;;;15.90;;
27187;SDS011;14708;50.872;5.306;2023-04-15T09:57:23;46.88;;;15.60;;
27187;SDS011;14708;50.872;5.306;2023-04-15T09:59:49;49.78;;;14.80;;
27187;SDS011;14708;50.872;5.306;2023-04-15T10:02:15;53.78;;;15.30;;
27187;SDS011;14708;50.872;5.306;2023-04-15T10:04:43;48.35;;;14.43;;
27187;SDS011;14708;50.872;5.306;2023-04-15T10:10:37;56.85;;;15.13;;
27187;SDS011;14708;50.872;5.306;2023-04-15T10:13:03;45.92;;;14.80;;
27187;SDS011;14708;50.872;5.306;2023-04-15T10:15:30;39.00;;;10.90;;
27187;SDS011;14708;50.872;5.306;2023-04-15T10:17:57;31.13;;;10.20;;
27187;SDS011;14708;50.872;5.306;2023-04-15T10:20:25;30.95;;;10.48;;
27187;SDS011;14708;50.872;5.306;2023-04-15T10:22:53;30.38;;;9.55;;
27187;SDS011;14708;50.872;5.306;2023-04-15T10:25:19;36.83;;;12.27;;
27187;SDS011;14708;50.872;5.306;2023-04-15T10:27:46;42.78;;;12.63;;
27187;SDS011;14708;50.872;5.306;2023-04-15T10:30:12;32.50;;;11.15;;
27187;SDS011;14708;50.872;5.306;2023-04-15T10:32:42;37.75;;;11.43;;
27187;SDS011;14708;50.872;5.306;2023-04-15T10:35:09;34.53;;;10.85;;
27187;SDS011;14708;50.872;5.306;2023-04-15T10:37:36;28.50;;;10.48;;
27187;SDS011;14708;50.872;5.306;2023-04-15T10:49:46;27.35;;;9.35;;
27187;SDS011;14708;50.872;5.306;2023-04-15T10:52:15;35.70;;;10.45;;
27187;SDS011;14708;50.872;5.306;2023-04-15T10:54:41;29.27;;;9.82;;
27187;SDS011;14708;50.872;5.306;2023-04-15T10:57:09;32.08;;;8.90;;
27187;SDS011;14708;50.872;5.306;2023-04-15T11:09:07;20.25;;;8.05;;
27187;SDS011;14708;50.872;5.306;2023-04-15T11:14:32;20.20;;;8.60;;
27187;SDS011;14708;50.872;5.306;2023-04-15T11:16:59;18.55;;;7.57;;
27187;SDS011;14708;50.872;5.306;2023-04-15T11:19:25;28.48;;;8.65;;
27187;SDS011;14708;50.872;5.306;2023-04-15T11:22:05;25.33;;;7.75;;
27187;SDS011;14708;50.872;5.306;2023-04-15T11:24:31;26.10;;;7.82;;
27187;SDS011;14708;50.872;5.306;2023-04-15T11:26:57;28.90;;;7.97;;
27187;SDS011;14708;50.872;5.306;2023-04-15T11:29:29;21.80;;;8.13;;
27187;SDS011;14708;50.872;5.306;2023-04-15T11:32:03;27.73;;;8.65;;
27187;SDS011;14708;50.872;5.306;2023-04-15T11:34:31;25.30;;;8.35;;
27187;SDS011;14708;50.872;5.306;2023-04-15T11:36:56;25.08;;;8.05;;
27187;SDS011;14708;50.872;5.306;2023-04-15T11:39:22;22.05;;;8.23;;
27187;SDS011;14708;50.872;5.306;2023-04-15T11:41:48;22.65;;;8.52;;
27187;SDS011;14708;50.872;5.306;2023-04-15T11:44:17;23.80;;;7.88;;
27187;SDS011;14708;50.872;5.306;2023-04-15T11:47:23;22.65;;;8.20;;
27187;SDS011;14708;50.872;5.306;2023-04-15T11:49:49;20.67;;;7.55;;
27187;SDS011;14708;50.872;5.306;2023-04-15T11:52:15;24.10;;;8.45;;
27187;SDS011;14708;50.872;5.306;2023-04-15T11:54:41;20.42;;;8.27;;
27187;SDS011;14708;50.872;5.306;2023-04-15T11:57:06;21.85;;;7.82;;
27187;SDS011;14708;50.872;5.306;2023-04-15T11:59:42;21.98;;;7.78;;
27187;SDS011;14708;50.872;5.306;2023-04-15T12:02:11;18.95;;;7.47;;
27187;SDS011;14708;50.872;5.306;2023-04-15T12:04:38;20.45;;;7.60;;
27187;SDS011;14708;50.872;5.306;2023-04-15T12:07:04;18.58;;;7.13;;
27187;SDS011;14708;50.872;5.306;2023-04-15T12:09:31;22.70;;;7.88;;
27187;SDS011;14708;50.872;5.306;2023-04-15T12:12:01;19.20;;;7.35;;
27187;SDS011;14708;50.872;5.306;2023-04-15T12:14:28;16.58;;;6.75;;
27187;SDS011;14708;50.872;5.306;2023-04-15T12:17:02;15.65;;;6.50;;
27187;SDS011;14708;50.872;5.306;2023-04-15T12:19:30;21.23;;;7.30;;
27187;SDS011;14708;50.872;5.306;2023-04-15T12:25:31;18.17;;;6.82;;
27187;SDS011;14708;50.872;5.306;2023-04-15T12:27:59;18.65;;;6.93;;
27187;SDS011;14708;50.872;5.306;2023-04-15T12:30:25;21.10;;;7.03;;
27187;SDS011;14708;50.872;5.306;2023-04-15T12:32:50;18.48;;;8.05;;
27187;SDS011;14708;50.872;5.306;2023-04-15T12:35:16;16.42;;;6.38;;
27187;SDS011;14708;50.872;5.306;2023-04-15T12:37:43;19.25;;;7.22;;
27187;SDS011;14708;50.872;5.306;2023-04-15T12:40:09;16.13;;;6.28;;
27187;SDS011;14708;50.872;5.306;2023-04-15T12:42:35;17.45;;;6.93;;
27187;SDS011;14708;50.872;5.306;2023-04-15T12:45:00;16.63;;;6.80;;
27187;SDS011;14708;50.872;5.306;2023-04-15T12:47:26;19.67;;;6.80;;
27187;SDS011;14708;50.872;5.306;2023-04-15T12:49:52;21.85;;;7.95;;
27187;SDS011;14708;50.872;5.306;2023-04-15T12:52:17;22.10;;;7.40;;
27187;SDS011;14708;50.872;5.306;2023-04-15T12:54:43;18.80;;;6.32;;
27187;SDS011;14708;50.872;5.306;2023-04-15T12:57:08;25.48;;;6.95;;
27187;SDS011;14708;50.872;5.306;2023-04-15T12:59:34;15.00;;;5.80;;
27187;SDS011;14708;50.872;5.306;2023-04-15T13:02:00;19.90;;;6.80;;
27187;SDS011;14708;50.872;5.306;2023-04-15T13:04:27;20.13;;;6.75;;
27187;SDS011;14708;50.872;5.306;2023-04-15T13:06:54;14.98;;;6.43;;
27187;SDS011;14708;50.872;5.306;2023-04-15T13:09:25;13.18;;;6.25;;
27187;SDS011;14708;50.872;5.306;2023-04-15T13:11:51;18.48;;;7.20;;
27187;SDS011;14708;50.872;5.306;2023-04-15T13:14:16;17.75;;;6.78;;
27187;SDS011;14708;50.872;5.306;2023-04-15T13:16:42;16.92;;;6.40;;
27187;SDS011;14708;50.872;5.306;2023-04-15T13:19:08;14.85;;;6.18;;
27187;SDS011;14708;50.872;5.306;2023-04-15T13:21:49;18.05;;;7.07;;
27187;SDS011;14708;50.872;5.306;2023-04-15T13:24:15;19.10;;;6.93;;
27187;SDS011;14708;50.872;5.306;2023-04-15T13:26:40;17.85;;;6.68;;
27187;SDS011;14708;50.872;5.306;2023-04-15T13:29:06;18.77;;;6.22;;
27187;SDS011;14708;50.872;5.306;2023-04-15T13:31:31;13.32;;;6.00;;
27187;SDS011;14708;50.872;5.306;2023-04-15T13:33:57;14.85;;;5.72;;
27187;SDS011;14708;50.872;5.306;2023-04-15T13:36:23;12.00;;;5.78;;
27187;SDS011;14708;50.872;5.306;2023-04-15T13:38:48;15.60;;;6.07;;
27187;SDS011;14708;50.872;5.306;2023-04-15T13:43:59;14.02;;;6.47;;
27187;SDS011;14708;50.872;5.306;2023-04-15T13:46:25;15.65;;;5.72;;
27187;SDS011;14708;50.872;5.306;2023-04-15T13:48:50;15.38;;;6.82;;
27187;SDS011;14708;50.872;5.306;2023-04-15T13:51:16;13.20;;;5.28;;
27187;SDS011;14708;50.872;5.306;2023-04-15T13:53:42;17.42;;;6.50;;
27187;SDS011;14708;50.872;5.306;2023-04-15T13:56:07;13.65;;;5.40;;
27187;SDS011;14708;50.872;5.306;2023-04-15T13:58:34;16.58;;;5.53;;
27187;SDS011;14708;50.872;5.306;2023-04-15T14:01:00;15.52;;;5.60;;
27187;SDS011;14708;50.872;5.306;2023-04-15T14:03:33;11.73;;;5.47;;
27187;SDS011;14708;50.872;5.306;2023-04-15T14:05:59;13.05;;;5.55;;
27187;SDS011;14708;50.872;5.306;2023-04-15T14:08:25;12.32;;;5.53;;
27187;SDS011;14708;50.872;5.306;2023-04-15T14:10:51;15.60;;;6.57;;
27187;SDS011;14708;50.872;5.306;2023-04-15T14:13:16;13.13;;;5.53;;
27187;SDS011;14708;50.872;5.306;2023-04-15T14:15:43;15.10;;;5.85;;
27187;SDS011;14708;50.872;5.306;2023-04-15T14:18:09;13.40;;;5.68;;
27187;SDS011;14708;50.872;5.306;2023-04-15T14:20:35;12.45;;;5.50;;
27187;SDS011;14708;50.872;5.306;2023-04-15T14:23:00;13.05;;;5.63;;
27187;SDS011;14708;50.872;5.306;2023-04-15T14:25:29;12.30;;;5.40;;
27187;SDS011;14708;50.872;5.306;2023-04-15T14:27:55;11.68;;;5.28;;
27187;SDS011;14708;50.872;5.306;2023-04-15T14:30:20;13.57;;;5.55;;
27187;SDS011;14708;50.872;5.306;2023-04-15T14:32:46;11.32;;;5.18;;
27187;SDS011;14708;50.872;5.306;2023-04-15T14:35:12;13.13;;;5.78;;
27187;SDS011;14708;50.872;5.306;2023-04-15T14:37:37;11.18;;;5.20;;
27187;SDS011;14708;50.872;5.306;2023-04-15T14:40:18;10.00;;;5.18;;
27187;SDS011;14708;50.872;5.306;2023-04-15T14:42:44;10.30;;;5.00;;
27187;SDS011;14708;50.872;5.306;2023-04-15T14:45:10;16.38;;;5.20;;
27187;SDS011;14708;50.872;5.306;2023-04-15T14:47:35;11.55;;;4.93;;
27187;SDS011;14708;50.872;5.306;2023-04-15T14:50:01;11.85;;;5.68;;
27187;SDS011;14708;50.872;5.306;2023-04-15T14:52:28;8.82;;;4.53;;
27187;SDS011;14708;50.872;5.306;2023-04-15T14:54:56;10.27;;;4.60;;
27187;SDS011;14708;50.872;5.306;2023-04-15T14:57:22;9.02;;;4.75;;
27187;SDS011;14708;50.872;5.306;2023-04-15T14:59:48;9.65;;;4.65;;
27187;SDS011;14708;50.872;5.306;2023-04-15T15:02:13;10.75;;;5.10;;
27187;SDS011;14708;50.872;5.306;2023-04-15T15:04:40;14.43;;;5.15;;
27187;SDS011;14708;50.872;5.306;2023-04-15T15:07:18;12.82;;;4.13;;
27187;SDS011;14708;50.872;5.306;2023-04-15T15:09:43;8.65;;;4.28;;
27187;SDS011;14708;50.872;5.306;2023-04-15T15:12:09;9.68;;;4.63;;
27187;SDS011;14708;50.872;5.306;2023-04-15T15:14:35;12.60;;;4.93;;
27187;SDS011;14708;50.872;5.306;2023-04-15T15:17:01;7.30;;;4.40;;
27187;SDS011;14708;50.872;5.306;2023-04-15T15:19:27;11.23;;;5.03;;
27187;SDS011;14708;50.872;5.306;2023-04-15T15:21:52;8.85;;;4.82;;
27187;SDS011;14708;50.872;5.306;2023-04-15T15:24:18;12.93;;;4.90;;
27187;SDS011;14708;50.872;5.306;2023-04-15T15:26:43;12.60;;;5.05;;
27187;SDS011;14708;50.872;5.306;2023-04-15T15:29:09;12.43;;;4.82;;
27187;SDS011;14708;50.872;5.306;2023-04-15T15:31:35;14.77;;;4.82;;
27187;SDS011;14708;50.872;5.306;2023-04-15T15:34:00;11.48;;;4.50;;